sensor_id;sensor_type;location;lat;lon;timestamp;temperature;humidity
23671;DHT22;12012;51.998;7.614;2023-04-25T00:02:00;7.10;67.10
23671;DHT22;12012;51.998;7.614;2023-04-25T00:04:25;7.10;1.00
23671;DHT22;12012;51.998;7.614;2023-04-25T00:06:53;7.10;99.90
23671;DHT22;12012;51.998;7.614;2023-04-25T00:09:19;7.10;99.90
23671;DHT22;12012;51.998;7.614;2023-04-25T00:11:45;7.10;99.90
23671;DHT22;12012;51.998;7.614;2023-04-25T00:14:10;7.10;99.90
23671;DHT22;12012;51.998;7.614;2023-04-25T00:16:36;7.10;99.90
23671;DHT22;12012;51.998;7.614;2023-04-25T00:19:02;7.10;99.90
23671;DHT22;12012;51.998;7.614;2023-04-25T00:21:28;7.10;99.90
23671;DHT22;12012;51.998;7.614;2023-04-25T00:23:55;7.10;99.90
23671;DHT22;12012;51.998;7.614;2023-04-25T00:26:20;7.10;99.90
23671;DHT22;12012;51.998;7.614;2023-04-25T00:28:47;7.10;99.90
23671;DHT22;12012;51.998;7.614;2023-04-25T00:31:13;7.10;99.90
23671;DHT22;12012;51.998;7.614;2023-04-25T00:33:38;7.10;99.90
23671;DHT22;12012;51.998;7.614;2023-04-25T00:36:04;7.00;1.00
23671;DHT22;12012;51.998;7.614;2023-04-25T00:38:30;7.00;1.00
23671;DHT22;12012;51.998;7.614;2023-04-25T00:40:56;7.00;1.00
23671;DHT22;12012;51.998;7.614;2023-04-25T00:43:26;7.00;1.00
23671;DHT22;12012;51.998;7.614;2023-04-25T00:45:52;7.00;1.00
23671;DHT22;12012;51.998;7.614;2023-04-25T00:48:19;7.00;1.00
23671;DHT22;12012;51.998;7.614;2023-04-25T00:50:59;7.00;1.00
23671;DHT22;12012;51.998;7.614;2023-04-25T00:53:27;7.00;1.00
23671;DHT22;12012;51.998;7.614;2023-04-25T00:55:53;6.90;1.00
23671;DHT22;12012;51.998;7.614;2023-04-25T00:58:20;7.00;1.00
23671;DHT22;12012;51.998;7.614;2023-04-25T01:00:47;7.00;1.00
23671;DHT22;12012;51.998;7.614;2023-04-25T01:03:15;6.90;1.00
23671;DHT22;12012;51.998;7.614;2023-04-25T01:05:41;6.90;1.00
23671;DHT22;12012;51.998;7.614;2023-04-25T01:08:07;6.90;1.00
23671;DHT22;12012;51.998;7.614;2023-04-25T01:10:33;6.90;1.00
23671;DHT22;12012;51.998;7.614;2023-04-25T01:12:59;6.90;1.00
23671;DHT22;12012;51.998;7.614;2023-04-25T01:15:24;6.90;1.00
23671;DHT22;12012;51.998;7.614;2023-04-25T01:17:50;6.90;1.00
23671;DHT22;12012;51.998;7.614;2023-04-25T01:20:16;6.90;1.00
23671;DHT22;12012;51.998;7.614;2023-04-25T01:22:42;6.90;1.00
23671;DHT22;12012;51.998;7.614;2023-04-25T01:25:08;6.90;1.00
23671;DHT22;12012;51.998;7.614;2023-04-25T01:27:36;6.90;1.00
23671;DHT22;12012;51.998;7.614;2023-04-25T01:30:02;6.90;1.00
23671;DHT22;12012;51.998;7.614;2023-04-25T01:32:29;7.00;3.00
23671;DHT22;12012;51.998;7.614;2023-04-25T01:34:57;7.00;12.80
23671;DHT22;12012;51.998;7.614;2023-04-25T01:37:22;7.00;1.00
23671;DHT22;12012;51.998;7.614;2023-04-25T01:39:48;7.00;9.00
23671;DHT22;12012;51.998;7.614;2023-04-25T01:42:15;7.00;4.20
23671;DHT22;12012;51.998;7.614;2023-04-25T01:44:41;7.00;12.00
23671;DHT22;12012;51.998;7.614;2023-04-25T01:47:06;7.00;5.20
23671;DHT22;12012;51.998;7.614;2023-04-25T01:49:32;7.00;8.70
23671;DHT22;12012;51.998;7.614;2023-04-25T01:51:58;7.00;5.60
23671;DHT22;12012;51.998;7.614;2023-04-25T01:54:23;7.00;1.00
23671;DHT22;12012;51.998;7.614;2023-04-25T01:56:52;7.10;1.00
23671;DHT22;12012;51.998;7.614;2023-04-25T01:59:18;7.00;1.00
23671;DHT22;12012;51.998;7.614;2023-04-25T02:01:45;7.00;1.00
23671;DHT22;12012;51.998;7.614;2023-04-25T02:04:10;7.00;1.00
23671;DHT22;12012;51.998;7.614;2023-04-25T02:06:36;7.00;1.00
23671;DHT22;12012;51.998;7.614;2023-04-25T02:09:01;7.00;1.00
23671;DHT22;12012;51.998;7.614;2023-04-25T02:11:27;7.00;1.00
23671;DHT22;12012;51.998;7.614;2023-04-25T02:13:53;7.00;1.00
23671;DHT22;12012;51.998;7.614;2023-04-25T02:16:19;7.00;1.00
23671;DHT22;12012;51.998;7.614;2023-04-25T02:18:44;7.00;1.00
23671;DHT22;12012;51.998;7.614;2023-04-25T02:21:10;7.00;1.00
23671;DHT22;12012;51.998;7.614;2023-04-25T02:23:36;7.00;1.00
23671;DHT22;12012;51.998;7.614;2023-04-25T02:26:02;7.00;1.00
23671;DHT22;12012;51.998;7.614;2023-04-25T02:28:28;6.90;1.00
23671;DHT22;12012;51.998;7.614;2023-04-25T02:30:53;7.00;99.90
23671;DHT22;12012;51.998;7.614;2023-04-25T02:33:19;6.90;99.90
23671;DHT22;12012;51.998;7.614;2023-04-25T02:35:46;6.90;99.90
23671;DHT22;12012;51.998;7.614;2023-04-25T02:38:12;6.90;99.90
23671;DHT22;12012;51.998;7.614;2023-04-25T02:40:37;6.80;99.90
23671;DHT22;12012;51.998;7.614;2023-04-25T02:43:03;6.90;99.90
23671;DHT22;12012;51.998;7.614;2023-04-25T02:45:28;6.80;99.90
23671;DHT22;12012;51.998;7.614;2023-04-25T02:47:54;6.80;99.90
23671;DHT22;12012;51.998;7.614;2023-04-25T02:50:19;6.80;99.90
23671;DHT22;12012;51.998;7.614;2023-04-25T02:52:45;6.80;99.90
23671;DHT22;12012;51.998;7.614;2023-04-25T02:55:12;6.80;99.90
23671;DHT22;12012;51.998;7.614;2023-04-25T02:57:37;6.80;99.90
23671;DHT22;12012;51.998;7.614;2023-04-25T03:00:03;6.80;99.90
23671;DHT22;12012;51.998;7.614;2023-04-25T03:02:30;6.80;99.90
23671;DHT22;12012;51.998;7.614;2023-04-25T03:04:56;6.80;99.90
23671;DHT22;12012;51.998;7.614;2023-04-25T03:07:21;6.80;99.90
23671;DHT22;12012;51.998;7.614;2023-04-25T03:09:47;6.80;99.90
23671;DHT22;12012;51.998;7.614;2023-04-25T03:12:12;6.70;99.90
23671;DHT22;12012;51.998;7.614;2023-04-25T03:14:38;6.70;99.90
23671;DHT22;12012;51.998;7.614;2023-04-25T03:17:03;6.70;99.90
23671;DHT22;12012;51.998;7.614;2023-04-25T03:19:29;6.70;99.90
23671;DHT22;12012;51.998;7.614;2023-04-25T03:21:54;6.70;99.90
23671;DHT22;12012;51.998;7.614;2023-04-25T03:24:21;6.70;99.90
23671;DHT22;12012;51.998;7.614;2023-04-25T03:26:47;6.60;99.90
23671;DHT22;12012;51.998;7.614;2023-04-25T03:29:12;6.60;99.90
23671;DHT22;12012;51.998;7.614;2023-04-25T03:31:38;6.60;99.90
23671;DHT22;12012;51.998;7.614;2023-04-25T03:34:04;6.60;99.90
23671;DHT22;12012;51.998;7.614;2023-04-25T03:36:29;6.60;1.00
23671;DHT22;12012;51.998;7.614;2023-04-25T03:38:55;6.60;1.00
23671;DHT22;12012;51.998;7.614;2023-04-25T03:41:20;6.60;99.90
23671;DHT22;12012;51.998;7.614;2023-04-25T03:43:46;6.60;1.00
23671;DHT22;12012;51.998;7.614;2023-04-25T03:46:12;6.60;1.00
23671;DHT22;12012;51.998;7.614;2023-04-25T03:48:37;6.60;1.00
23671;DHT22;12012;51.998;7.614;2023-04-25T03:51:03;6.50;99.90
23671;DHT22;12012;51.998;7.614;2023-04-25T03:53:28;6.50;99.90
23671;DHT22;12012;51.998;7.614;2023-04-25T03:55:54;6.50;99.90
23671;DHT22;12012;51.998;7.614;2023-04-25T03:58:19;6.50;99.90
23671;DHT22;12012;51.998;7.614;2023-04-25T04:00:45;6.50;99.90
23671;DHT22;12012;51.998;7.614;2023-04-25T04:03:11;6.50;99.90
23671;DHT22;12012;51.998;7.614;2023-04-25T04:05:36;6.50;99.90
23671;DHT22;12012;51.998;7.614;2023-04-25T04:08:02;6.50;99.90
23671;DHT22;12012;51.998;7.614;2023-04-25T04:10:28;6.50;99.90
23671;DHT22;12012;51.998;7.614;2023-04-25T04:12:53;6.50;99.90
23671;DHT22;12012;51.998;7.614;2023-04-25T04:15:19;6.50;99.90
23671;DHT22;12012;51.998;7.614;2023-04-25T04:17:45;6.50;99.90
23671;DHT22;12012;51.998;7.614;2023-04-25T04:20:12;6.50;99.90
23671;DHT22;12012;51.998;7.614;2023-04-25T04:22:37;6.50;99.90
23671;DHT22;12012;51.998;7.614;2023-04-25T04:25:03;6.50;99.90
23671;DHT22;12012;51.998;7.614;2023-04-25T04:27:30;6.50;99.90
23671;DHT22;12012;51.998;7.614;2023-04-25T04:29:55;6.50;99.90
23671;DHT22;12012;51.998;7.614;2023-04-25T04:32:21;6.50;99.90
23671;DHT22;12012;51.998;7.614;2023-04-25T04:34:48;6.50;99.90
23671;DHT22;12012;51.998;7.614;2023-04-25T04:37:14;6.50;99.90
23671;DHT22;12012;51.998;7.614;2023-04-25T04:39:40;6.50;99.90
23671;DHT22;12012;51.998;7.614;2023-04-25T04:42:06;6.40;99.90
23671;DHT22;12012;51.998;7.614;2023-04-25T04:44:32;6.40;99.90
23671;DHT22;12012;51.998;7.614;2023-04-25T04:46:58;6.40;99.90
23671;DHT22;12012;51.998;7.614;2023-04-25T04:49:24;6.40;99.90
23671;DHT22;12012;51.998;7.614;2023-04-25T04:51:49;6.40;99.90
23671;DHT22;12012;51.998;7.614;2023-04-25T04:54:15;6.40;99.90
23671;DHT22;12012;51.998;7.614;2023-04-25T04:56:40;6.40;99.90
23671;DHT22;12012;51.998;7.614;2023-04-25T04:59:07;6.40;99.90
23671;DHT22;12012;51.998;7.614;2023-04-25T05:01:33;6.40;99.90
23671;DHT22;12012;51.998;7.614;2023-04-25T05:04:00;6.50;99.90
23671;DHT22;12012;51.998;7.614;2023-04-25T05:06:27;6.50;99.90
23671;DHT22;12012;51.998;7.614;2023-04-25T05:08:54;6.50;99.90
23671;DHT22;12012;51.998;7.614;2023-04-25T05:11:20;6.50;99.90
23671;DHT22;12012;51.998;7.614;2023-04-25T05:13:46;6.50;99.90
23671;DHT22;12012;51.998;7.614;2023-04-25T05:16:12;6.50;99.90
23671;DHT22;12012;51.998;7.614;2023-04-25T05:18:39;6.60;99.90
23671;DHT22;12012;51.998;7.614;2023-04-25T05:21:05;6.60;73.70
23671;DHT22;12012;51.998;7.614;2023-04-25T05:23:32;6.60;5.00
23671;DHT22;12012;51.998;7.614;2023-04-25T05:25:58;6.60;1.00
23671;DHT22;12012;51.998;7.614;2023-04-25T05:28:23;6.60;1.00
23671;DHT22;12012;51.998;7.614;2023-04-25T05:30:49;6.60;1.00
23671;DHT22;12012;51.998;7.614;2023-04-25T05:33:15;6.70;1.00
23671;DHT22;12012;51.998;7.614;2023-04-25T05:35:41;6.70;99.90
23671;DHT22;12012;51.998;7.614;2023-04-25T05:38:06;6.80;99.90
23671;DHT22;12012;51.998;7.614;2023-04-25T05:40:32;6.70;1.00
23671;DHT22;12012;51.998;7.614;2023-04-25T05:42:58;6.80;1.00
23671;DHT22;12012;51.998;7.614;2023-04-25T05:45:23;6.80;1.00
23671;DHT22;12012;51.998;7.614;2023-04-25T05:47:49;6.90;99.90
23671;DHT22;12012;51.998;7.614;2023-04-25T05:50:15;6.90;99.90
23671;DHT22;12012;51.998;7.614;2023-04-25T05:52:40;7.00;1.00
23671;DHT22;12012;51.998;7.614;2023-04-25T05:55:06;7.00;92.40
23671;DHT22;12012;51.998;7.614;2023-04-25T05:57:31;7.10;99.90
23671;DHT22;12012;51.998;7.614;2023-04-25T05:59:57;7.10;1.00
23671;DHT22;12012;51.998;7.614;2023-04-25T06:02:23;7.20;1.00
23671;DHT22;12012;51.998;7.614;2023-04-25T06:04:50;7.20;99.90
23671;DHT22;12012;51.998;7.614;2023-04-25T06:07:16;7.30;99.90
23671;DHT22;12012;51.998;7.614;2023-04-25T06:09:43;7.30;1.00
23671;DHT22;12012;51.998;7.614;2023-04-25T06:12:08;7.40;1.00
23671;DHT22;12012;51.998;7.614;2023-04-25T06:14:34;7.40;99.90
23671;DHT22;12012;51.998;7.614;2023-04-25T06:16:59;7.40;99.90
23671;DHT22;12012;51.998;7.614;2023-04-25T06:19:40;7.50;99.90
23671;DHT22;12012;51.998;7.614;2023-04-25T06:22:06;7.60;1.00
23671;DHT22;12012;51.998;7.614;2023-04-25T06:24:32;7.60;99.90
23671;DHT22;12012;51.998;7.614;2023-04-25T06:26:58;7.70;73.40
23671;DHT22;12012;51.998;7.614;2023-04-25T06:29:24;7.80;1.00
23671;DHT22;12012;51.998;7.614;2023-04-25T06:31:49;7.80;99.90
23671;DHT22;12012;51.998;7.614;2023-04-25T06:34:15;7.80;99.90
23671;DHT22;12012;51.998;7.614;2023-04-25T06:36:41;7.90;1.00
23671;DHT22;12012;51.998;7.614;2023-04-25T06:39:07;8.00;99.90
23671;DHT22;12012;51.998;7.614;2023-04-25T06:41:34;8.00;1.00
23671;DHT22;12012;51.998;7.614;2023-04-25T06:44:00;8.10;1.00
23671;DHT22;12012;51.998;7.614;2023-04-25T06:46:26;8.10;99.90
23671;DHT22;12012;51.998;7.614;2023-04-25T06:48:51;8.10;99.90
23671;DHT22;12012;51.998;7.614;2023-04-25T06:51:17;8.20;41.80
23671;DHT22;12012;51.998;7.614;2023-04-25T06:53:43;8.20;57.50
23671;DHT22;12012;51.998;7.614;2023-04-25T06:56:08;8.30;99.90
23671;DHT22;12012;51.998;7.614;2023-04-25T06:58:34;8.30;25.90
23671;DHT22;12012;51.998;7.614;2023-04-25T07:01:00;8.50;1.00
23671;DHT22;12012;51.998;7.614;2023-04-25T07:03:25;8.60;1.00
23671;DHT22;12012;51.998;7.614;2023-04-25T07:05:51;8.60;99.90
23671;DHT22;12012;51.998;7.614;2023-04-25T07:08:17;8.70;99.90
23671;DHT22;12012;51.998;7.614;2023-04-25T07:10:42;8.80;99.90
23671;DHT22;12012;51.998;7.614;2023-04-25T07:13:08;8.90;99.90
23671;DHT22;12012;51.998;7.614;2023-04-25T07:15:33;8.90;99.90
23671;DHT22;12012;51.998;7.614;2023-04-25T07:17:59;9.00;99.90
23671;DHT22;12012;51.998;7.614;2023-04-25T07:20:25;9.10;65.20
23671;DHT22;12012;51.998;7.614;2023-04-25T07:22:52;9.20;99.90
23671;DHT22;12012;51.998;7.614;2023-04-25T07:25:18;9.20;1.00
23671;DHT22;12012;51.998;7.614;2023-04-25T07:27:44;9.30;99.90
23671;DHT22;12012;51.998;7.614;2023-04-25T07:30:10;9.40;1.00
23671;DHT22;12012;51.998;7.614;2023-04-25T07:32:36;9.50;1.00
23671;DHT22;12012;51.998;7.614;2023-04-25T07:35:02;9.50;1.00
23671;DHT22;12012;51.998;7.614;2023-04-25T07:37:28;9.50;1.00
23671;DHT22;12012;51.998;7.614;2023-04-25T07:39:54;9.60;1.00
23671;DHT22;12012;51.998;7.614;2023-04-25T07:42:20;9.70;1.00
23671;DHT22;12012;51.998;7.614;2023-04-25T07:44:46;9.80;99.90
23671;DHT22;12012;51.998;7.614;2023-04-25T07:47:12;10.00;99.90
23671;DHT22;12012;51.998;7.614;2023-04-25T07:49:38;10.10;99.90
23671;DHT22;12012;51.998;7.614;2023-04-25T07:52:05;10.30;99.90
23671;DHT22;12012;51.998;7.614;2023-04-25T07:54:34;10.40;99.90
23671;DHT22;12012;51.998;7.614;2023-04-25T07:57:00;10.50;99.90
23671;DHT22;12012;51.998;7.614;2023-04-25T07:59:25;10.70;99.90
23671;DHT22;12012;51.998;7.614;2023-04-25T08:01:51;10.90;99.90
23671;DHT22;12012;51.998;7.614;2023-04-25T08:04:16;11.00;99.90
23671;DHT22;12012;51.998;7.614;2023-04-25T08:06:42;11.10;99.90
23671;DHT22;12012;51.998;7.614;2023-04-25T08:09:08;11.30;99.90
23671;DHT22;12012;51.998;7.614;2023-04-25T08:11:35;11.40;99.90
23671;DHT22;12012;51.998;7.614;2023-04-25T08:14:01;11.60;99.90
23671;DHT22;12012;51.998;7.614;2023-04-25T08:16:27;11.70;99.90
23671;DHT22;12012;51.998;7.614;2023-04-25T08:18:52;12.00;99.90
23671;DHT22;12012;51.998;7.614;2023-04-25T08:21:18;12.00;99.90
23671;DHT22;12012;51.998;7.614;2023-04-25T08:23:44;12.20;96.40
23671;DHT22;12012;51.998;7.614;2023-04-25T08:26:10;12.40;89.40
23671;DHT22;12012;51.998;7.614;2023-04-25T08:28:35;12.30;58.40
23671;DHT22;12012;51.998;7.614;2023-04-25T08:31:01;12.00;47.50
23671;DHT22;12012;51.998;7.614;2023-04-25T08:33:26;11.70;46.30
23671;DHT22;12012;51.998;7.614;2023-04-25T08:35:52;11.60;50.50
23671;DHT22;12012;51.998;7.614;2023-04-25T08:38:18;11.70;47.90
23671;DHT22;12012;51.998;7.614;2023-04-25T08:40:49;11.90;46.70
23671;DHT22;12012;51.998;7.614;2023-04-25T08:43:18;12.10;46.10
23671;DHT22;12012;51.998;7.614;2023-04-25T08:45:44;12.40;41.00
23671;DHT22;12012;51.998;7.614;2023-04-25T08:48:13;12.70;36.00
23671;DHT22;12012;51.998;7.614;2023-04-25T08:50:40;12.90;35.20
23671;DHT22;12012;51.998;7.614;2023-04-25T08:53:10;13.20;29.80
23671;DHT22;12012;51.998;7.614;2023-04-25T08:55:39;13.40;32.40
23671;DHT22;12012;51.998;7.614;2023-04-25T08:58:06;13.40;27.70
23671;DHT22;12012;51.998;7.614;2023-04-25T09:00:32;13.30;25.30
23671;DHT22;12012;51.998;7.614;2023-04-25T09:02:58;13.30;17.90
23671;DHT22;12012;51.998;7.614;2023-04-25T09:05:24;13.10;10.40
23671;DHT22;12012;51.998;7.614;2023-04-25T09:07:50;12.90;6.10
23671;DHT22;12012;51.998;7.614;2023-04-25T09:10:16;12.70;2.90
23671;DHT22;12012;51.998;7.614;2023-04-25T09:12:42;12.50;1.00
23671;DHT22;12012;51.998;7.614;2023-04-25T09:15:09;12.30;1.00
23671;DHT22;12012;51.998;7.614;2023-04-25T09:17:35;12.10;1.00
23671;DHT22;12012;51.998;7.614;2023-04-25T09:20:09;11.90;1.00
23671;DHT22;12012;51.998;7.614;2023-04-25T09:22:37;11.70;1.00
23671;DHT22;12012;51.998;7.614;2023-04-25T09:25:12;11.60;1.00
23671;DHT22;12012;51.998;7.614;2023-04-25T09:27:52;11.50;1.20
23671;DHT22;12012;51.998;7.614;2023-04-25T09:30:19;11.40;1.30
23671;DHT22;12012;51.998;7.614;2023-04-25T09:32:56;11.50;1.50
23671;DHT22;12012;51.998;7.614;2023-04-25T09:35:26;11.90;2.70
23671;DHT22;12012;51.998;7.614;2023-04-25T09:37:54;12.40;3.20
23671;DHT22;12012;51.998;7.614;2023-04-25T09:40:19;12.80;1.00
23671;DHT22;12012;51.998;7.614;2023-04-25T09:42:45;13.00;1.00
23671;DHT22;12012;51.998;7.614;2023-04-25T09:45:13;13.10;1.00
23671;DHT22;12012;51.998;7.614;2023-04-25T09:47:40;13.20;1.00
23671;DHT22;12012;51.998;7.614;2023-04-25T09:50:14;13.20;1.00
23671;DHT22;12012;51.998;7.614;2023-04-25T09:52:40;13.30;1.00
23671;DHT22;12012;51.998;7.614;2023-04-25T09:55:06;13.40;1.00
23671;DHT22;12012;51.998;7.614;2023-04-25T09:57:33;13.40;1.00
23671;DHT22;12012;51.998;7.614;2023-04-25T10:00:00;13.50;1.00
23671;DHT22;12012;51.998;7.614;2023-04-25T10:02:27;13.60;1.00
23671;DHT22;12012;51.998;7.614;2023-04-25T10:04:54;13.90;1.00
23671;DHT22;12012;51.998;7.614;2023-04-25T10:07:24;14.10;1.00
23671;DHT22;12012;51.998;7.614;2023-04-25T10:10:01;14.30;1.00
23671;DHT22;12012;51.998;7.614;2023-04-25T10:12:28;14.40;1.00
23671;DHT22;12012;51.998;7.614;2023-04-25T10:14:54;14.40;1.00
23671;DHT22;12012;51.998;7.614;2023-04-25T10:17:21;14.20;1.00
23671;DHT22;12012;51.998;7.614;2023-04-25T10:19:51;14.10;1.00
23671;DHT22;12012;51.998;7.614;2023-04-25T10:22:29;14.10;1.00
23671;DHT22;12012;51.998;7.614;2023-04-25T10:24:56;14.20;1.00
23671;DHT22;12012;51.998;7.614;2023-04-25T10:27:22;14.30;1.00
23671;DHT22;12012;51.998;7.614;2023-04-25T10:30:01;14.30;1.00
23671;DHT22;12012;51.998;7.614;2023-04-25T10:32:30;14.20;1.00
23671;DHT22;12012;51.998;7.614;2023-04-25T10:34:56;14.20;1.00
23671;DHT22;12012;51.998;7.614;2023-04-25T10:37:22;14.30;1.00
23671;DHT22;12012;51.998;7.614;2023-04-25T10:39:49;14.20;1.00
23671;DHT22;12012;51.998;7.614;2023-04-25T10:42:14;13.90;1.00
23671;DHT22;12012;51.998;7.614;2023-04-25T10:44:40;13.50;1.00
23671;DHT22;12012;51.998;7.614;2023-04-25T10:47:07;13.10;1.00
23671;DHT22;12012;51.998;7.614;2023-04-25T10:49:38;12.80;1.00
23671;DHT22;12012;51.998;7.614;2023-04-25T10:54:46;11.90;1.00
23671;DHT22;12012;51.998;7.614;2023-04-25T10:57:38;11.60;1.00
23671;DHT22;12012;51.998;7.614;2023-04-25T11:02:47;11.20;1.00
23671;DHT22;12012;51.998;7.614;2023-04-25T11:05:33;11.00;1.00
23671;DHT22;12012;51.998;7.614;2023-04-25T11:08:00;10.90;1.00
23671;DHT22;12012;51.998;7.614;2023-04-25T11:10:27;10.90;1.00
23671;DHT22;12012;51.998;7.614;2023-04-25T11:12:53;10.80;1.00
23671;DHT22;12012;51.998;7.614;2023-04-25T11:15:18;10.70;1.00
23671;DHT22;12012;51.998;7.614;2023-04-25T11:17:44;10.70;1.00
23671;DHT22;12012;51.998;7.614;2023-04-25T11:20:12;10.60;1.00
23671;DHT22;12012;51.998;7.614;2023-04-25T11:22:39;10.70;1.00
23671;DHT22;12012;51.998;7.614;2023-04-25T11:25:07;10.90;1.00
23671;DHT22;12012;51.998;7.614;2023-04-25T11:27:33;11.10;1.00
23671;DHT22;12012;51.998;7.614;2023-04-25T11:30:15;11.20;1.00
23671;DHT22;12012;51.998;7.614;2023-04-25T11:32:41;11.30;1.00
23671;DHT22;12012;51.998;7.614;2023-04-25T11:35:09;11.30;1.00
23671;DHT22;12012;51.998;7.614;2023-04-25T11:37:34;11.30;1.00
23671;DHT22;12012;51.998;7.614;2023-04-25T11:40:00;11.40;1.00
23671;DHT22;12012;51.998;7.614;2023-04-25T11:42:26;11.50;1.00
23671;DHT22;12012;51.998;7.614;2023-04-25T11:44:52;11.80;1.00
23671;DHT22;12012;51.998;7.614;2023-04-25T11:47:17;12.40;1.00
23671;DHT22;12012;51.998;7.614;2023-04-25T11:49:43;13.30;1.00
23671;DHT22;12012;51.998;7.614;2023-04-25T11:52:08;14.10;1.00
23671;DHT22;12012;51.998;7.614;2023-04-25T11:54:37;15.00;1.00
23671;DHT22;12012;51.998;7.614;2023-04-25T11:57:04;15.80;1.00
23671;DHT22;12012;51.998;7.614;2023-04-25T11:59:30;16.60;1.00
23671;DHT22;12012;51.998;7.614;2023-04-25T12:01:55;17.30;1.00
23671;DHT22;12012;51.998;7.614;2023-04-25T12:04:24;18.00;1.00
23671;DHT22;12012;51.998;7.614;2023-04-25T12:06:51;18.60;1.00
23671;DHT22;12012;51.998;7.614;2023-04-25T12:09:19;19.10;1.00
23671;DHT22;12012;51.998;7.614;2023-04-25T12:11:56;19.40;1.00
23671;DHT22;12012;51.998;7.614;2023-04-25T12:14:46;19.60;1.00
23671;DHT22;12012;51.998;7.614;2023-04-25T12:17:13;19.90;1.00
23671;DHT22;12012;51.998;7.614;2023-04-25T12:19:39;20.10;1.00
23671;DHT22;12012;51.998;7.614;2023-04-25T12:22:19;20.20;1.00
23671;DHT22;12012;51.998;7.614;2023-04-25T12:24:46;20.30;1.00
23671;DHT22;12012;51.998;7.614;2023-04-25T12:27:14;20.00;1.00
23671;DHT22;12012;51.998;7.614;2023-04-25T12:29:54;19.50;1.00
23671;DHT22;12012;51.998;7.614;2023-04-25T12:32:20;18.90;1.00
23671;DHT22;12012;51.998;7.614;2023-04-25T12:34:45;18.20;1.00
23671;DHT22;12012;51.998;7.614;2023-04-25T12:37:11;17.70;1.00
23671;DHT22;12012;51.998;7.614;2023-04-25T12:39:37;17.30;1.00
23671;DHT22;12012;51.998;7.614;2023-04-25T12:42:03;17.50;1.00
23671;DHT22;12012;51.998;7.614;2023-04-25T12:44:29;17.50;1.00
23671;DHT22;12012;51.998;7.614;2023-04-25T12:46:54;17.10;1.00
23671;DHT22;12012;51.998;7.614;2023-04-25T12:49:20;16.90;1.00
23671;DHT22;12012;51.998;7.614;2023-04-25T12:51:46;16.50;1.00
23671;DHT22;12012;51.998;7.614;2023-04-25T12:54:14;15.80;1.00
23671;DHT22;12012;51.998;7.614;2023-04-25T12:56:40;15.00;1.00
23671;DHT22;12012;51.998;7.614;2023-04-25T12:59:06;14.20;1.00
23671;DHT22;12012;51.998;7.614;2023-04-25T13:01:32;13.70;1.00
23671;DHT22;12012;51.998;7.614;2023-04-25T13:03:58;13.50;1.00
23671;DHT22;12012;51.998;7.614;2023-04-25T13:06:23;13.60;1.00
23671;DHT22;12012;51.998;7.614;2023-04-25T13:08:49;13.70;1.00
23671;DHT22;12012;51.998;7.614;2023-04-25T13:11:15;14.20;1.00
23671;DHT22;12012;51.998;7.614;2023-04-25T13:13:41;15.10;1.00
23671;DHT22;12012;51.998;7.614;2023-04-25T13:16:08;16.10;1.00
23671;DHT22;12012;51.998;7.614;2023-04-25T13:18:34;17.00;1.00
23671;DHT22;12012;51.998;7.614;2023-04-25T13:21:00;17.70;1.00
23671;DHT22;12012;51.998;7.614;2023-04-25T13:23:27;17.80;1.00
23671;DHT22;12012;51.998;7.614;2023-04-25T13:25:54;17.40;1.00
23671;DHT22;12012;51.998;7.614;2023-04-25T13:28:20;16.30;1.00
23671;DHT22;12012;51.998;7.614;2023-04-25T13:30:46;15.20;1.00
23671;DHT22;12012;51.998;7.614;2023-04-25T13:33:13;14.50;1.00
23671;DHT22;12012;51.998;7.614;2023-04-25T13:35:39;14.70;1.00
23671;DHT22;12012;51.998;7.614;2023-04-25T13:38:05;14.70;1.00
23671;DHT22;12012;51.998;7.614;2023-04-25T13:40:30;14.50;1.00
23671;DHT22;12012;51.998;7.614;2023-04-25T13:42:57;14.30;1.00
23671;DHT22;12012;51.998;7.614;2023-04-25T13:45:23;14.40;1.00
23671;DHT22;12012;51.998;7.614;2023-04-25T13:47:49;15.00;1.00
23671;DHT22;12012;51.998;7.614;2023-04-25T13:50:15;15.60;1.00
23671;DHT22;12012;51.998;7.614;2023-04-25T13:52:41;16.40;1.00
23671;DHT22;12012;51.998;7.614;2023-04-25T13:55:07;16.90;1.00
23671;DHT22;12012;51.998;7.614;2023-04-25T13:57:34;17.20;1.00
23671;DHT22;12012;51.998;7.614;2023-04-25T14:00:00;17.70;1.00
23671;DHT22;12012;51.998;7.614;2023-04-25T14:02:31;18.20;1.00
23671;DHT22;12012;51.998;7.614;2023-04-25T14:04:56;18.80;1.00
23671;DHT22;12012;51.998;7.614;2023-04-25T14:07:22;19.40;1.00
23671;DHT22;12012;51.998;7.614;2023-04-25T14:09:48;19.90;1.00
23671;DHT22;12012;51.998;7.614;2023-04-25T14:12:13;20.10;1.00
23671;DHT22;12012;51.998;7.614;2023-04-25T14:14:39;19.90;1.00
23671;DHT22;12012;51.998;7.614;2023-04-25T14:17:05;20.00;1.00
23671;DHT22;12012;51.998;7.614;2023-04-25T14:19:31;20.00;1.00
23671;DHT22;12012;51.998;7.614;2023-04-25T14:21:57;19.90;1.00
23671;DHT22;12012;51.998;7.614;2023-04-25T14:24:22;20.00;1.00
23671;DHT22;12012;51.998;7.614;2023-04-25T14:26:48;20.20;1.00
23671;DHT22;12012;51.998;7.614;2023-04-25T14:29:14;20.40;1.00
23671;DHT22;12012;51.998;7.614;2023-04-25T14:31:39;20.40;1.00
23671;DHT22;12012;51.998;7.614;2023-04-25T14:34:08;19.80;1.00
23671;DHT22;12012;51.998;7.614;2023-04-25T14:36:35;18.90;1.00
23671;DHT22;12012;51.998;7.614;2023-04-25T14:39:00;18.10;1.00
23671;DHT22;12012;51.998;7.614;2023-04-25T14:41:26;17.10;1.00
23671;DHT22;12012;51.998;7.614;2023-04-25T14:43:52;16.30;1.00
23671;DHT22;12012;51.998;7.614;2023-04-25T14:46:19;16.30;1.00
23671;DHT22;12012;51.998;7.614;2023-04-25T14:48:45;16.40;1.00
23671;DHT22;12012;51.998;7.614;2023-04-25T14:51:11;16.50;1.00
23671;DHT22;12012;51.998;7.614;2023-04-25T14:53:36;16.40;1.00
23671;DHT22;12012;51.998;7.614;2023-04-25T14:56:02;16.20;1.00
23671;DHT22;12012;51.998;7.614;2023-04-25T14:58:28;15.70;1.00
23671;DHT22;12012;51.998;7.614;2023-04-25T15:00:54;15.80;1.00
23671;DHT22;12012;51.998;7.614;2023-04-25T15:03:19;15.90;1.00
23671;DHT22;12012;51.998;7.614;2023-04-25T15:05:45;15.90;1.00
23671;DHT22;12012;51.998;7.614;2023-04-25T15:08:11;16.00;1.00
23671;DHT22;12012;51.998;7.614;2023-04-25T15:10:37;16.30;1.00
23671;DHT22;12012;51.998;7.614;2023-04-25T15:13:03;16.80;1.00
23671;DHT22;12012;51.998;7.614;2023-04-25T15:15:29;17.20;1.00
23671;DHT22;12012;51.998;7.614;2023-04-25T15:17:55;17.60;1.00
23671;DHT22;12012;51.998;7.614;2023-04-25T15:20:21;17.90;1.00
23671;DHT22;12012;51.998;7.614;2023-04-25T15:22:47;18.00;1.00
23671;DHT22;12012;51.998;7.614;2023-04-25T15:25:14;17.90;1.00
23671;DHT22;12012;51.998;7.614;2023-04-25T15:27:41;17.90;1.00
23671;DHT22;12012;51.998;7.614;2023-04-25T15:30:09;17.70;1.00
23671;DHT22;12012;51.998;7.614;2023-04-25T15:32:36;17.60;1.00
23671;DHT22;12012;51.998;7.614;2023-04-25T15:35:06;17.60;1.00
23671;DHT22;12012;51.998;7.614;2023-04-25T15:37:33;17.60;1.00
23671;DHT22;12012;51.998;7.614;2023-04-25T15:42:35;17.50;1.00
23671;DHT22;12012;51.998;7.614;2023-04-25T15:45:01;17.40;1.00
23671;DHT22;12012;51.998;7.614;2023-04-25T15:47:26;17.20;1.00
23671;DHT22;12012;51.998;7.614;2023-04-25T15:49:52;17.10;1.00
23671;DHT22;12012;51.998;7.614;2023-04-25T15:52:18;17.10;1.00